Time;durP1;ratioP1;P1;durP2;ratioP2;P2;SDS_P1;SDS_P2;PMS_P1;PMS_P2;Temp;Humidity;BMP_temperature;BMP_pressure;BME280_temperature;BME280_humidity;BME280_pressure;Samples;Min_cycle;Max_cycle;Signal;HPM_P1;HPM_P2
2022/03/18 00:02:11;;;;;;;28.00;13.57;;;;;;;1.95;58.49;103037.41;10305369;28;20301;-70
2022/03/18 00:07:15;;;;;;;29.43;13.83;;;;;;;1.95;59.45;103029.72;10306474;28;20215;-71
2022/03/18 00:12:22;;;;;;;29.63;14.73;;;;;;;1.78;58.57;103045.63;10303464;28;20241;-70
2022/03/18 00:17:26;;;;;;;30.37;14.10;;;;;;;1.77;58.62;103051.53;10303521;28;20226;-71
2022/03/18 00:22:32;;;;;;;29.30;13.80;;;;;;;1.71;59.07;103050.22;10303898;28;20238;-71
2022/03/18 00:27:36;;;;;;;22.87;12.40;;;;;;;1.72;58.75;103060.56;10303506;28;20227;-72
2022/03/18 00:32:40;;;;;;;30.23;13.37;;;;;;;1.83;59.85;103053.63;10299120;28;20233;-72
2022/03/18 00:38:04;;;;;;;27.77;12.40;;;;;;;1.66;59.98;103066.91;10298898;28;20302;-64
2022/03/18 00:43:08;;;;;;;22.90;11.87;;;;;;;1.67;59.80;103058.47;9931627;28;9999801;-63
2022/03/18 00:53:33;;;;;;;25.07;12.17;;;;;;;1.58;59.72;103063.84;10261246;28;20227;-73
2022/03/18 00:58:36;;;;;;;23.77;12.13;;;;;;;1.57;59.41;103067.16;10261461;28;20323;-75
2022/03/18 01:03:40;;;;;;;25.73;11.40;;;;;;;1.54;61.19;103063.50;10261091;28;20220;-71
2022/03/18 01:08:45;;;;;;;23.70;11.23;;;;;;;1.45;60.65;103068.88;10259281;28;20227;-72
2022/03/18 01:13:48;;;;;;;28.60;12.80;;;;;;;1.37;59.50;103070.03;10260203;28;20291;-71
2022/03/18 01:18:51;;;;;;;26.27;12.27;;;;;;;1.30;59.68;103061.81;10260002;28;20706;-73
2022/03/18 01:23:56;;;;;;;25.80;11.73;;;;;;;1.28;60.75;103064.25;10259761;28;20224;-72
2022/03/18 01:28:59;;;;;;;31.23;13.20;;;;;;;1.23;59.60;103080.06;10259804;29;20219;-73
2022/03/18 01:34:03;;;;;;;25.67;11.90;;;;;;;1.07;59.97;103073.84;10261608;28;20267;-72
2022/03/18 01:39:08;;;;;;;27.17;11.90;;;;;;;0.99;60.19;103081.75;10260171;28;20220;-71
2022/03/18 01:44:12;;;;;;;24.77;11.93;;;;;;;0.91;59.72;103088.00;10258728;28;20554;-72
2022/03/18 01:49:15;;;;;;;24.07;11.77;;;;;;;0.92;61.53;103089.75;10258913;28;20312;-71
2022/03/18 01:59:40;;;;;;;25.50;11.63;;;;;;;0.80;61.79;103094.00;10258587;29;20224;-72
2022/03/18 02:04:44;;;;;;;20.77;11.13;;;;;;;0.80;60.96;103089.78;10258294;28;20588;-70
2022/03/18 02:09:49;;;;;;;21.13;11.60;;;;;;;0.68;61.77;103091.44;10261148;28;20227;-72
2022/03/18 02:14:53;;;;;;;24.93;11.00;;;;;;;0.81;61.13;103090.69;10257827;28;20662;-68
2022/03/18 02:19:56;;;;;;;21.53;11.07;;;;;;;0.72;61.46;103095.09;10257236;28;20239;-71
2022/03/18 02:25:02;;;;;;;24.47;12.13;;;;;;;0.67;62.65;103089.69;10257625;28;20204;-69
2022/03/18 02:30:07;;;;;;;25.80;13.00;;;;;;;0.66;62.04;103089.53;10257447;28;20199;-70
2022/03/18 02:35:10;;;;;;;22.60;10.57;;;;;;;0.60;62.90;103086.53;10257303;28;20670;-70
2022/03/18 02:40:15;;;;;;;19.83;11.10;;;;;;;0.66;63.55;103092.09;10257176;28;20215;-70
2022/03/18 02:45:19;;;;;;;23.50;10.53;;;;;;;0.73;63.47;103108.00;10258977;28;20200;-69
2022/03/18 02:50:22;;;;;;;20.17;10.30;;;;;;;0.65;62.36;103115.88;10256796;28;20290;-73
2022/03/18 02:55:27;;;;;;;20.23;10.30;;;;;;;0.72;63.60;103116.44;10256645;28;20231;-71
2022/03/18 03:00:30;;;;;;;24.00;11.13;;;;;;;0.62;62.58;103118.22;10256782;28;20200;-72
2022/03/18 03:10:56;;;;;;;21.63;10.50;;;;;;;0.40;63.21;103119.97;10256433;29;20196;-71
2022/03/18 03:15:59;;;;;;;25.10;10.67;;;;;;;0.38;63.56;103130.03;10256189;28;20676;-70
2022/03/18 03:21:02;;;;;;;20.50;10.57;;;;;;;0.25;63.78;103123.91;10265380;28;20311;-69
2022/03/18 03:26:07;;;;;;;24.70;11.70;;;;;;;0.17;63.44;103136.09;10256544;28;20204;-68
2022/03/18 03:31:11;;;;;;;22.60;11.07;;;;;;;0.18;63.78;103142.06;10257864;28;20215;-74
2022/03/18 03:36:15;;;;;;;23.60;11.03;;;;;;;0.08;63.81;103149.81;10263632;28;20238;-72
2022/03/18 03:41:22;;;;;;;23.87;10.87;;;;;;;0.05;64.91;103147.94;10263707;28;20200;-71
2022/03/18 03:46:25;;;;;;;25.57;11.77;;;;;;;0.10;64.40;103156.84;10263536;28;20192;-71
2022/03/18 03:51:28;;;;;;;24.70;11.57;;;;;;;0.07;64.31;103155.72;10263418;28;20560;-67
2022/03/18 03:56:33;;;;;;;23.90;12.10;;;;;;;0.05;65.61;103162.34;10264675;28;20651;-73
2022/03/18 04:01:36;;;;;;;24.47;11.93;;;;;;;0.00;64.83;103167.97;10263002;28;20200;-70
2022/03/18 04:06:40;;;;;;;24.07;11.43;;;;;;;-0.04;64.98;103176.19;10262850;28;20200;-68
2022/03/18 04:11:45;;;;;;;24.47;12.13;;;;;;;-0.11;64.82;103181.59;10263157;28;20192;-69
2022/03/18 04:16:48;;;;;;;26.17;11.70;;;;;;;-0.15;65.57;103187.22;10262233;28;20625;-70
2022/03/18 04:21:51;;;;;;;23.57;11.87;;;;;;;-0.29;65.44;103192.00;10262141;28;20567;-69
2022/03/18 04:26:56;;;;;;;26.03;11.60;;;;;;;-0.19;65.46;103200.50;10262040;28;20214;-70
2022/03/18 04:31:59;;;;;;;22.70;10.63;;;;;;;-0.20;65.91;103208.94;10265277;28;20537;-75
2022/03/18 04:37:03;;;;;;;26.80;11.60;;;;;;;-0.29;65.97;103217.50;10261797;28;20230;-72
2022/03/18 04:42:09;;;;;;;29.10;11.20;;;;;;;-0.22;66.67;103227.44;10261341;28;20200;-71
2022/03/18 04:47:12;;;;;;;25.53;11.20;;;;;;;-0.16;66.02;103221.19;10261170;28;20212;-72
2022/03/18 04:52:15;;;;;;;21.37;10.30;;;;;;;-0.38;66.15;103227.88;10261040;28;20232;-73
2022/03/18 04:57:20;;;;;;;27.60;11.83;;;;;;;-0.35;66.69;103230.69;10261430;28;20216;-69
2022/03/18 05:02:24;;;;;;;21.17;10.93;;;;;;;-0.21;67.02;103231.78;10260787;28;20250;-72
2022/03/18 05:07:28;;;;;;;25.10;10.60;;;;;;;-0.26;67.08;103240.75;10262778;28;20228;-69
2022/03/18 05:12:33;;;;;;;24.50;11.13;;;;;;;-0.23;68.11;103253.72;10260845;28;20246;-71
2022/03/18 05:17:37;;;;;;;24.47;10.67;;;;;;;-0.32;66.90;103251.34;10260756;28;20216;-71
2022/03/18 05:22:40;;;;;;;23.43;10.70;;;;;;;-0.34;67.15;103257.97;10260243;28;20235;-75
2022/03/18 05:27:45;;;;;;;22.03;10.67;;;;;;;-0.22;68.08;103255.50;10259980;28;20303;-76
2022/03/18 05:32:48;;;;;;;24.87;10.87;;;;;;;-0.13;67.66;103266.44;10259489;28;20224;-71
2022/03/18 05:37:52;;;;;;;24.80;11.13;;;;;;;-0.01;67.71;103268.31;10262046;28;20231;-75
2022/03/18 05:42:56;;;;;;;26.83;11.50;;;;;;;0.08;67.64;103277.44;10256847;28;20558;-74
2022/03/18 05:48:00;;;;;;;19.17;10.53;;;;;;;0.13;66.72;103277.03;10260674;28;20228;-74
2022/03/18 05:53:04;;;;;;;22.47;10.03;;;;;;;0.22;67.60;103282.88;10264022;28;20228;-73
2022/03/18 05:58:08;;;;;;;23.03;10.33;;;;;;;0.32;67.56;103287.94;10256997;28;20235;-73
2022/03/18 06:03:13;;;;;;;18.33;9.87;;;;;;;0.46;67.68;103295.00;9921168;28;9999905;-72
2022/03/18 06:13:39;;;;;;;24.37;10.77;;;;;;;0.48;65.60;103302.78;10293993;28;20223;-68
2022/03/18 06:18:42;;;;;;;27.60;10.53;;;;;;;0.50;64.93;103307.22;10295550;28;20566;-68
2022/03/18 06:23:45;;;;;;;24.67;10.37;;;;;;;0.53;65.79;103311.69;10294228;28;20314;-72
2022/03/18 06:28:50;;;;;;;21.03;10.33;;;;;;;0.67;64.46;103318.75;10294455;28;20223;-72
2022/03/18 06:33:54;;;;;;;19.63;9.03;;;;;;;0.76;64.59;103322.03;10293582;28;20689;-74
2022/03/18 06:38:57;;;;;;;23.20;10.27;;;;;;;0.90;63.46;103324.84;10294162;28;20235;-73
2022/03/18 06:44:02;;;;;;;29.97;12.53;;;;;;;1.03;63.79;103324.09;10293821;28;20231;-76
2022/03/18 06:49:07;;;;;;;23.47;10.57;;;;;;;1.11;63.99;103323.00;10294108;28;20563;-73
2022/03/18 06:54:12;;;;;;;22.60;10.37;;;;;;;1.15;64.57;103325.03;10285937;28;20233;-74
2022/03/18 06:59:17;;;;;;;20.57;10.50;;;;;;;1.29;64.18;103326.94;10253603;28;20230;-75
2022/03/18 07:04:20;;;;;;;24.57;10.20;;;;;;;1.52;64.52;103333.78;10246401;28;20227;-74
2022/03/18 07:09:23;;;;;;;19.63;9.00;;;;;;;1.68;62.62;103336.66;10253205;28;20220;-75
2022/03/18 07:14:28;;;;;;;19.53;9.60;;;;;;;1.81;60.65;103339.34;10252857;28;20660;-74
2022/03/18 07:19:33;;;;;;;17.43;8.20;;;;;;;1.92;59.80;103328.19;10252540;28;20252;-73
2022/03/18 07:24:36;;;;;;;16.90;7.90;;;;;;;2.17;59.64;103334.31;10252850;28;20366;-72
2022/03/18 07:29:41;;;;;;;18.00;7.47;;;;;;;2.39;57.96;103345.28;10255343;29;20230;-74
2022/03/18 07:34:44;;;;;;;15.63;7.17;;;;;;;2.56;57.76;103339.66;10239287;28;20226;-72
2022/03/18 07:39:48;;;;;;;17.73;7.53;;;;;;;2.65;56.06;103340.31;10243776;29;20240;-76
2022/03/18 07:44:53;;;;;;;15.53;7.47;;;;;;;2.63;54.23;103348.66;10240761;28;20303;-74
2022/03/18 07:49:56;;;;;;;15.63;7.37;;;;;;;2.89;54.19;103344.56;10231401;29;20547;-74
2022/03/18 07:54:59;;;;;;;33.30;13.13;;;;;;;3.15;53.28;103346.34;10238211;28;20303;-72
2022/03/18 08:00:05;;;;;;;14.47;7.10;;;;;;;3.43;52.81;103335.44;10234558;29;20217;-74
2022/03/18 08:05:09;;;;;;;15.67;7.10;;;;;;;3.57;53.21;103343.19;10237346;28;20315;-75
2022/03/18 08:10:13;;;;;;;9.63;4.93;;;;;;;3.84;51.92;103344.97;10234491;29;20225;-74
2022/03/18 08:15:21;;;;;;;19.00;8.73;;;;;;;4.00;51.02;103346.06;10234412;28;20216;-74
2022/03/18 08:20:25;;;;;;;16.33;7.03;;;;;;;4.04;50.05;103352.31;10234836;28;20243;-73
2022/03/18 08:25:28;;;;;;;15.50;6.33;;;;;;;4.14;49.69;103347.81;10240750;28;20303;-73
2022/03/18 08:30:33;;;;;;;15.93;5.00;;;;;;;4.13;48.35;103351.19;10240395;28;20224;-71
2022/03/18 08:35:38;;;;;;;11.73;5.70;;;;;;;4.23;47.86;103353.53;10240516;28;20571;-75
2022/03/18 08:40:42;;;;;;;11.50;5.20;;;;;;;4.37;47.01;103350.16;10239870;29;20236;-72
2022/03/18 08:45:54;;;;;;;49.50;19.53;;;;;;;4.38;46.38;103353.63;10247797;28;20223;-73
2022/03/18 08:50:58;;;;;;;12.70;6.17;;;;;;;4.46;46.38;103352.41;10241734;28;20219;-74
2022/03/18 08:56:02;;;;;;;10.90;5.43;;;;;;;4.71;45.07;103346.31;10240255;28;20224;-74
2022/03/18 09:01:06;;;;;;;9.67;5.03;;;;;;;5.04;45.49;103352.59;10238031;29;20224;-76
2022/03/18 09:06:11;;;;;;;12.57;5.50;;;;;;;5.20;44.95;103344.13;10238435;28;20348;-75
2022/03/18 09:11:15;;;;;;;11.77;5.33;;;;;;;5.55;45.57;103345.41;10238290;28;20598;-73
2022/03/18 09:16:19;;;;;;;10.53;5.17;;;;;;;5.94;44.99;103344.22;10241388;28;20224;-74
2022/03/18 09:21:36;;;;;;;12.80;5.67;;;;;;;6.36;44.45;103346.63;10237509;29;20291;-74
2022/03/18 09:26:39;;;;;;;12.33;4.50;;;;;;;6.87;44.42;103351.09;10237835;28;20227;-74
2022/03/18 09:31:47;;;;;;;13.50;6.70;;;;;;;7.51;41.21;103344.97;10235692;29;20275;-74
2022/03/18 09:36:52;;;;;;;10.47;4.47;;;;;;;7.57;42.30;103341.00;10255556;28;20232;-76
2022/03/18 09:41:56;;;;;;;10.73;4.67;;;;;;;8.31;41.15;103342.06;10256259;29;20327;-73
2022/03/18 09:47:02;;;;;;;11.70;4.97;;;;;;;8.87;39.57;103345.53;10255960;28;20303;-73
2022/03/18 09:52:06;;;;;;;10.30;5.73;;;;;;;9.46;38.82;103342.09;10255719;29;20303;-75
2022/03/18 09:57:11;;;;;;;10.77;4.57;;;;;;;9.75;37.46;103332.06;10284644;28;20318;-75
2022/03/18 10:02:26;;;;;;;10.17;4.73;;;;;;;10.50;37.52;103329.03;10282295;28;20263;-72
2022/03/18 10:07:30;;;;;;;18.10;8.90;;;;;;;10.98;36.60;103324.75;10256311;28;20386;-75
2022/03/18 10:12:36;;;;;;;10.93;5.20;;;;;;;11.30;35.92;103322.44;10254806;28;20286;-74
2022/03/18 10:17:46;;;;;;;10.73;5.00;;;;;;;11.84;34.56;103325.16;10254844;28;20220;-76
2022/03/18 10:22:49;;;;;;;9.50;4.20;;;;;;;11.49;32.75;103317.03;10257899;28;20188;-75
2022/03/18 10:27:53;;;;;;;10.40;5.20;;;;;;;12.24;33.85;103309.94;10279650;28;20519;-76
2022/03/18 10:32:58;;;;;;;9.03;4.90;;;;;;;12.90;34.59;103311.91;10270335;28;20210;-74
2022/03/18 10:38:01;;;;;;;12.37;4.47;;;;;;;12.90;31.28;103314.50;10256204;28;20234;-76
2022/03/18 10:43:06;;;;;;;11.23;5.10;;;;;;;13.21;32.35;103321.47;10253491;28;20581;-75
2022/03/18 10:48:13;;;;;;;9.23;5.40;;;;;;;13.86;31.28;103322.28;10253928;28;20279;-71
2022/03/18 10:53:18;;;;;;;12.20;5.47;;;;;;;13.64;30.65;103314.78;10253745;28;20572;-72
2022/03/18 10:58:22;;;;;;;11.97;5.90;;;;;;;13.72;30.89;103304.50;10253321;29;20303;-71
2022/03/18 11:03:28;;;;;;;10.90;5.57;;;;;;;14.37;29.64;103296.50;10269863;28;20407;-71
2022/03/18 11:08:40;;;;;;;10.77;5.70;;;;;;;15.01;29.79;103302.16;10294751;28;20235;-71
2022/03/18 11:13:51;;;;;;;9.40;5.30;;;;;;;15.21;29.14;103307.75;10292316;28;20203;-73
2022/03/18 11:18:57;;;;;;;8.87;5.07;;;;;;;15.69;29.02;103308.63;10292887;28;20231;-71
2022/03/18 11:24:03;;;;;;;12.65;6.03;;;;;;;16.12;28.76;103299.66;10292157;28;20204;-72
2022/03/18 11:29:07;;;;;;;10.77;5.47;;;;;;;16.50;28.21;103288.00;10292191;28;20206;-72
2022/03/18 11:34:14;;;;;;;10.67;5.23;;;;;;;16.96;27.96;103302.53;10273940;28;20199;-72
2022/03/18 11:39:22;;;;;;;9.50;5.40;;;;;;;17.07;27.78;103291.28;10253852;28;20323;-70
2022/03/18 11:44:52;;;;;;;9.83;5.47;;;;;;;17.60;26.99;103286.53;10252808;28;20204;-71
2022/03/18 11:49:57;;;;;;;9.97;5.73;;;;;;;18.08;26.62;103286.00;10252852;28;20307;-67
2022/03/18 11:55:09;;;;;;;11.37;6.47;;;;;;;17.64;24.76;103283.06;10258033;28;20248;-65
2022/03/18 12:00:43;;;;;;;9.97;5.57;;;;;;;17.80;26.51;103282.31;10260132;29;20204;-68
2022/03/18 12:05:58;;;;;;;10.13;5.77;;;;;;;17.92;25.67;103277.13;10259642;28;20215;-65
2022/03/18 12:11:25;;;;;;;10.87;6.07;;;;;;;18.50;26.40;103265.19;10260767;29;20250;-72
2022/03/18 12:16:30;;;;;;;12.93;5.82;;;;;;;18.97;25.00;103254.78;10289902;28;20293;-73
2022/03/18 12:21:42;;;;;;;9.57;5.63;;;;;;;19.81;25.38;103246.91;10298744;28;20305;-72
2022/03/18 12:26:46;;;;;;;11.63;5.63;;;;;;;19.57;25.34;103268.03;10298901;28;20734;-72
2022/03/18 12:31:49;;;;;;;;;;;;;;;20.44;23.84;103251.13;10299139;28;20222;-71
2022/03/18 12:36:53;;;;;;;;;;;;;;;20.76;23.88;103261.53;10299012;28;19930;-72
2022/03/18 12:42:07;;;;;;;;;;;;;;;19.93;25.70;103243.38;10300379;28;20426;-74
2022/03/18 12:47:10;;;;;;;;;;;;;;;19.29;26.16;103248.66;10298198;28;19952;-77
2022/03/18 12:52:16;;;;;;;;;;;;;;;19.08;24.65;103247.78;10298345;28;19930;-75
2022/03/18 12:57:25;;;;;;;;;;;;;;;17.57;26.43;103248.88;10300104;28;19936;-69
2022/03/18 13:02:28;;;;;;;;;;;;;;;17.55;26.25;103246.22;10301072;28;19952;-70
2022/03/18 13:07:32;;;;;;;;;;;;;;;17.22;26.94;103251.19;10301357;28;19926;-69
2022/03/18 13:12:36;;;;;;;;;;;;;;;17.18;24.93;103229.28;10241318;28;20357;-72
2022/03/18 13:17:40;;;;;;;;;;;;;;;16.66;27.56;103239.22;10247522;28;19927;-71
2022/03/18 13:22:45;;;;;;;;;;;;;;;16.58;26.34;103236.53;10240554;29;19927;-72
2022/03/18 13:27:48;;;;;;;;;;;;;;;16.63;27.14;103245.34;10240091;28;19927;-69
2022/03/18 13:32:56;;;;;;;;;;;;;;;16.24;26.91;103247.41;10240008;28;19961;-72
2022/03/18 13:38:05;;;;;;;;;;;;;;;16.16;27.00;103246.44;10242501;28;19926;-71
2022/03/18 13:43:09;;;;;;;;;;;;;;;15.70;26.98;103244.91;10240569;29;19926;-71
2022/03/18 13:48:25;;;;;;;;;;;;;;;15.16;28.07;103228.31;10242664;28;19930;-73
2022/03/18 13:53:41;;;;;;;;;;;;;;;15.03;27.21;103242.91;10242462;29;20350;-70
2022/03/18 13:58:48;;;;;;;;;;;;;;;14.42;28.31;103246.94;10242091;28;19927;-62
2022/03/18 14:04:00;;;;;;;;;;;;;;;14.01;28.47;103235.59;10239448;28;19933;-61
2022/03/18 14:09:14;;;;;;;10.77;4.73;;;;;;;13.93;28.47;103243.25;10238560;28;20039;-69
2022/03/18 14:14:22;;;;;;;11.33;6.47;;;;;;;13.42;29.12;103241.16;10235707;28;20258;-67
2022/03/18 14:19:44;;;;;;;9.23;5.37;;;;;;;12.82;29.77;103243.91;10244273;28;20698;-63
2022/03/18 14:24:49;;;;;;;11.27;5.63;;;;;;;12.84;30.17;103241.34;10241661;28;20210;-75
2022/03/18 14:30:26;;;;;;;9.90;5.40;;;;;;;12.58;29.68;103237.16;10226810;28;20303;-74
2022/03/18 14:35:30;;;;;;;12.87;5.43;;;;;;;11.94;31.30;103233.53;10239192;28;20564;-63
2022/03/18 14:40:36;;;;;;;16.57;8.43;;;;;;;11.19;31.46;103231.94;10233151;29;20216;-70
2022/03/18 14:45:39;;;;;;;11.77;5.13;;;;;;;11.16;31.37;103235.31;10252458;28;20231;-70
2022/03/18 14:50:43;;;;;;;11.67;5.57;;;;;;;10.67;32.24;103234.44;10238915;28;20196;-70
2022/03/18 15:01:08;;;;;;;9.93;5.30;;;;;;;10.23;32.52;103239.75;10237804;29;20217;-69
2022/03/18 15:06:12;;;;;;;13.63;5.63;;;;;;;10.10;33.15;103240.09;10240148;28;20220;-70
2022/03/18 15:11:17;;;;;;;11.40;5.87;;;;;;;9.89;32.47;103232.34;10231170;28;20205;-70
2022/03/18 15:16:20;;;;;;;12.43;5.37;;;;;;;9.66;32.82;103228.00;10241076;28;20220;-70
2022/03/18 15:21:24;;;;;;;9.50;5.60;;;;;;;9.58;33.30;103228.50;9896044;28;9999994;-72
2022/03/18 15:26:29;;;;;;;13.33;6.30;;;;;;;9.42;34.02;103231.28;10238633;28;20607;-71
2022/03/18 15:31:32;;;;;;;12.33;5.50;;;;;;;9.42;33.26;103227.00;10247864;29;20192;-75
2022/03/18 15:36:36;;;;;;;8.97;5.13;;;;;;;9.31;33.43;103238.63;10243750;28;20217;-73
2022/03/18 15:41:41;;;;;;;11.30;5.70;;;;;;;9.11;33.31;103237.78;10244578;28;20570;-74
2022/03/18 15:46:46;;;;;;;15.13;6.00;;;;;;;9.09;33.64;103243.75;10242768;28;20235;-74
2022/03/18 15:51:51;;;;;;;11.50;5.50;;;;;;;9.42;33.29;103237.38;10226561;28;20201;-74
2022/03/18 15:56:59;;;;;;;13.87;5.83;;;;;;;9.36;34.91;103231.94;10257615;28;20704;-74
2022/03/18 16:02:04;;;;;;;15.53;6.63;;;;;;;9.16;33.84;103238.00;10262914;29;20219;-75
2022/03/18 16:07:07;;;;;;;13.60;5.20;;;;;;;8.90;34.10;103233.44;10259953;28;20815;-75
2022/03/18 16:12:14;;;;;;;69.60;28.40;;;;;;;8.82;35.50;103240.84;10260193;29;20202;-76
2022/03/18 16:17:18;;;;;;;13.50;6.03;;;;;;;8.64;34.89;103242.66;10259947;28;20294;-75
2022/03/18 16:22:32;;;;;;;14.37;5.77;;;;;;;8.48;36.50;103247.06;10250827;28;20242;-71
2022/03/18 16:27:40;;;;;;;11.30;5.93;;;;;;;8.32;35.91;103255.84;10261513;28;20310;-70
2022/03/18 16:32:44;;;;;;;10.60;5.60;;;;;;;8.14;36.46;103255.84;10252993;28;20212;-72
2022/03/18 16:37:48;;;;;;;13.10;5.93;;;;;;;8.00;37.53;103261.22;10259730;28;20342;-72
2022/03/18 16:42:56;;;;;;;11.43;5.77;;;;;;;7.85;37.98;103263.09;10274497;28;20895;-72
2022/03/18 16:53:24;;;;;;;10.07;5.50;;;;;;;7.40;39.55;103271.22;10254274;28;20310;-76
2022/03/18 16:58:30;;;;;;;14.50;6.23;;;;;;;7.21;38.29;103272.00;10297048;28;20264;-74
2022/03/18 17:03:34;;;;;;;17.27;6.97;;;;;;;7.23;38.40;103277.25;10297737;28;20220;-73
2022/03/18 17:08:38;;;;;;;13.20;6.40;;;;;;;6.92;38.76;103288.56;10298816;28;20220;-76
2022/03/18 17:13:43;;;;;;;16.53;6.90;;;;;;;6.86;40.15;103287.38;10300272;28;20219;-74
2022/03/18 17:18:48;;;;;;;12.87;6.47;;;;;;;6.81;39.60;103283.69;10242881;28;20245;-77
2022/03/18 17:23:51;;;;;;;20.57;7.30;;;;;;;6.69;40.88;103296.84;10253178;28;20607;-76
2022/03/18 17:28:57;;;;;;;16.93;8.07;;;;;;;6.60;39.89;103293.78;10262785;29;20239;-77
2022/03/18 17:34:00;;;;;;;20.17;9.07;;;;;;;6.36;40.75;103297.63;10259331;28;20299;-75
2022/03/18 17:39:03;;;;;;;14.10;7.37;;;;;;;6.34;40.98;103306.97;10259811;28;20747;-75
2022/03/18 17:44:08;;;;;;;19.70;8.30;;;;;;;6.25;41.99;103310.72;10260316;28;20236;-75
2022/03/18 17:49:13;;;;;;;14.40;7.30;;;;;;;6.08;41.55;103307.22;10258548;28;20715;-68
2022/03/18 17:54:19;;;;;;;40.77;19.83;;;;;;;6.03;42.95;103305.19;10258714;28;20216;-72
2022/03/18 17:59:24;;;;;;;19.80;8.97;;;;;;;5.93;42.81;103316.69;10268806;28;20223;-75
2022/03/18 18:04:28;;;;;;;19.77;7.87;;;;;;;5.81;42.29;103319.44;10297648;28;20306;-75
2022/03/18 18:09:31;;;;;;;24.17;9.63;;;;;;;5.78;42.65;103320.97;10295230;28;20224;-74
2022/03/18 18:14:36;;;;;;;19.43;9.33;;;;;;;5.64;42.81;103324.44;10294773;28;20227;-73
2022/03/18 18:25:01;;;;;;;20.60;8.60;;;;;;;5.62;43.23;103338.91;10255319;28;20665;-73
2022/03/18 18:30:07;;;;;;;22.13;9.23;;;;;;;5.52;44.05;103332.31;10259368;28;20232;-76
2022/03/18 18:35:11;;;;;;;21.77;9.33;;;;;;;5.37;46.43;103334.03;10254723;28;20227;-74
2022/03/18 18:40:15;;;;;;;22.13;9.17;;;;;;;5.31;44.72;103330.19;10254554;28;20863;-74
2022/03/18 18:45:20;;;;;;;21.97;10.57;;;;;;;5.22;46.67;103334.81;10254255;28;20652;-74
2022/03/18 18:50:24;;;;;;;24.50;10.60;;;;;;;5.23;45.33;103334.88;10254843;28;20224;-72
2022/03/18 18:55:27;;;;;;;24.00;11.47;;;;;;;5.13;45.57;103336.81;10253631;28;20220;-72
2022/03/18 19:00:34;;;;;;;23.63;10.73;;;;;;;5.00;46.19;103344.63;10256975;28;20290;-72
2022/03/18 19:05:37;;;;;;;26.57;11.37;;;;;;;4.95;46.39;103344.38;10253687;28;20251;-76
2022/03/18 19:10:40;;;;;;;24.00;11.07;;;;;;;4.85;46.50;103346.28;10253448;28;20612;-76
2022/03/18 19:15:47;;;;;;;24.70;11.80;;;;;;;4.51;48.11;103354.50;10253243;28;20307;-75
2022/03/18 19:20:50;;;;;;;30.90;12.40;;;;;;;4.58;48.48;103360.91;10252842;28;20576;-73
2022/03/18 19:25:54;;;;;;;35.67;14.17;;;;;;;4.44;49.28;103351.44;10225307;28;20285;-75
2022/03/18 19:31:00;;;;;;;34.27;15.13;;;;;;;4.35;50.98;103349.19;10214061;29;20564;-75
2022/03/18 19:36:05;;;;;;;32.90;12.17;;;;;;;4.38;50.59;103353.63;10213776;29;20232;-74
2022/03/18 19:41:09;;;;;;;27.10;12.63;;;;;;;4.17;51.41;103360.88;10212990;29;20238;-74
2022/03/18 19:46:13;;;;;;;30.03;13.27;;;;;;;4.06;52.23;103359.28;10213288;29;20268;-75
2022/03/18 19:51:17;;;;;;;33.80;13.83;;;;;;;4.07;52.13;103366.19;10212996;28;20316;-73
2022/03/18 20:01:43;;;;;;;38.40;17.07;;;;;;;3.89;52.54;103375.31;10218188;29;20613;-73
2022/03/18 20:06:46;;;;;;;36.43;16.40;;;;;;;3.75;53.16;103375.19;10213050;29;20725;-76
2022/03/18 20:11:50;;;;;;;28.00;14.70;;;;;;;3.59;51.95;103375.84;10212796;29;20216;-75
2022/03/18 20:16:54;;;;;;;38.30;15.63;;;;;;;3.49;54.13;103384.63;10223730;29;20587;-73
2022/03/18 20:21:57;;;;;;;34.23;15.97;;;;;;;3.44;54.77;103387.69;10259333;28;20646;-72
2022/03/18 20:27:01;;;;;;;36.47;16.37;;;;;;;3.40;54.35;103386.56;10259949;28;20765;-77
2022/03/18 20:32:06;;;;;;;37.17;16.37;;;;;;;3.24;54.19;103398.28;10259139;28;20255;-75
2022/03/18 20:37:11;;;;;;;34.27;16.27;;;;;;;3.23;54.93;103396.50;10262184;28;20262;-73
2022/03/18 20:42:14;;;;;;;35.17;16.17;;;;;;;3.26;56.20;103397.59;10258406;28;20212;-74
2022/03/18 20:47:19;;;;;;;35.27;16.97;;;;;;;3.23;54.62;103392.25;10270118;28;20227;-73
2022/03/18 20:52:22;;;;;;;34.90;16.37;;;;;;;3.08;55.96;103392.88;10273965;28;20222;-71
2022/03/18 20:57:26;;;;;;;33.23;15.87;;;;;;;2.92;56.58;103395.16;10261214;28;20315;-73
2022/03/18 21:02:31;;;;;;;32.67;15.87;;;;;;;2.80;56.29;103399.44;10261139;28;20303;-74
2022/03/18 21:07:37;;;;;;;36.03;16.63;;;;;;;2.72;57.16;103396.38;10260568;28;20227;-71
2022/03/18 21:12:42;;;;;;;34.17;16.50;;;;;;;2.59;57.51;103386.03;10257406;28;20230;-72
2022/03/18 21:17:47;;;;;;;35.87;16.57;;;;;;;2.61;57.84;103394.72;10256973;28;20319;-73
2022/03/18 21:22:50;;;;;;;38.20;17.53;;;;;;;2.61;58.03;103396.38;10257927;28;20283;-72
2022/03/18 21:33:16;;;;;;;38.50;16.87;;;;;;;2.33;58.32;103391.88;10257196;29;20633;-71
2022/03/18 21:38:20;;;;;;;38.33;17.70;;;;;;;2.44;58.44;103387.50;10260262;28;20327;-70
2022/03/18 21:43:25;;;;;;;39.33;17.00;;;;;;;2.31;59.52;103397.69;10257079;28;20801;-76
2022/03/18 21:48:34;;;;;;;39.67;16.33;;;;;;;2.30;59.43;103399.34;10257063;28;20196;-73
2022/03/18 21:53:40;;;;;;;39.43;17.87;;;;;;;2.10;60.65;103399.59;10256620;28;20250;-73
2022/03/18 21:58:43;;;;;;;34.17;17.40;;;;;;;2.08;61.11;103398.59;10256306;28;20227;-73
2022/03/18 22:03:49;;;;;;;37.87;17.10;;;;;;;1.84;59.67;103395.91;10256613;28;20203;-76
2022/03/18 22:08:53;;;;;;;40.83;19.23;;;;;;;1.90;60.92;103410.03;10258700;28;20211;-73
2022/03/18 22:13:58;;;;;;;41.33;18.30;;;;;;;1.89;61.56;103407.38;10258072;28;20632;-71
2022/03/18 22:19:02;;;;;;;42.57;18.77;;;;;;;1.80;61.72;103405.03;10255532;28;20584;-72
2022/03/18 22:24:07;;;;;;;51.90;18.80;;;;;;;1.70;61.18;103399.09;10255528;28;20192;-72
2022/03/18 22:29:10;;;;;;;44.97;21.40;;;;;;;1.69;63.04;103405.00;10258888;28;20279;-72
2022/03/18 22:34:15;;;;;;;56.17;25.40;;;;;;;1.61;63.94;103406.09;10255652;28;20632;-75
2022/03/18 22:39:19;;;;;;;60.87;25.50;;;;;;;1.36;65.44;103400.81;10254720;28;20226;-75
2022/03/18 22:44:23;;;;;;;59.30;26.40;;;;;;;1.51;66.27;103390.84;9917792;28;9999899;-74
2022/03/18 22:49:30;;;;;;;55.17;24.63;;;;;;;1.34;66.95;103397.25;10254009;29;20645;-75
2022/03/18 22:54:34;;;;;;;61.70;26.87;;;;;;;1.37;68.04;103388.91;10254951;28;20543;-74
2022/03/18 22:59:37;;;;;;;66.87;29.73;;;;;;;1.21;69.17;103380.88;10254090;28;20224;-65
2022/03/18 23:04:42;;;;;;;63.53;29.07;;;;;;;1.33;69.83;103380.09;10253508;28;20195;-74
2022/03/18 23:09:46;;;;;;;69.63;31.87;;;;;;;1.42;69.25;103387.56;10252938;29;20583;-73
2022/03/18 23:14:50;;;;;;;63.97;30.53;;;;;;;1.22;69.00;103374.97;10253427;28;20625;-74
2022/03/18 23:19:55;;;;;;;67.70;30.97;;;;;;;1.23;69.21;103385.31;10256488;29;20251;-75
2022/03/18 23:24:59;;;;;;;65.90;30.70;;;;;;;1.24;69.53;103384.56;10253206;28;20211;-73
2022/03/18 23:30:03;;;;;;;77.37;34.07;;;;;;;1.18;69.77;103387.53;10253118;29;20208;-75
2022/03/18 23:35:09;;;;;;;70.87;32.83;;;;;;;1.11;69.76;103379.25;10252737;28;20220;-74
2022/03/18 23:40:13;;;;;;;70.63;34.73;;;;;;;1.14;70.53;103384.59;10252169;29;20224;-74
2022/03/18 23:45:17;;;;;;;74.97;32.33;;;;;;;1.04;70.67;103390.69;10252466;28;20307;-73
2022/03/18 23:50:23;;;;;;;80.20;34.03;;;;;;;1.11;69.51;103389.50;10258654;28;20552;-73
2022/03/18 23:55:26;;;;;;;71.87;32.77;;;;;;;1.18;69.43;103389.19;10263300;28;20216;-76
